Time;durP1;ratioP1;P1;durP2;ratioP2;P2;SDS_P1;SDS_P2;PMS_P1;PMS_P2;Temp;Humidity;BMP_temperature;BMP_pressure;BME280_temperature;BME280_humidity;BME280_pressure;Samples;Min_cycle;Max_cycle;Signal;HPM_P1;HPM_P2
2021/04/01 00:05:49;;;;;;;12.20;7.95;;;;;;;7.65;64.22;97574.95;1685461;83;21250;-89
2021/04/01 00:09:46;;;;;;;13.08;8.13;;;;;;;7.66;64.28;97567.42;1561704;89;21206;-88
2021/04/01 00:12:54;;;;;;;12.63;8.10;;;;;;;7.65;64.18;97565.28;1605652;87;21194;-86
2021/04/01 00:16:37;;;;;;;10.28;6.95;;;;;;;7.58;64.07;97561.34;1609246;85;21187;-86
2021/04/01 00:31:02;;;;;;;15.32;7.62;;;;;;;7.24;64.05;97561.21;1801798;79;24916;-90
2021/04/01 00:34:07;;;;;;;12.40;7.42;;;;;;;7.14;64.19;97562.23;1771347;78;21150;-86
2021/04/01 00:37:21;;;;;;;11.18;7.50;;;;;;;7.06;64.00;97553.50;1669346;83;21314;-87
2021/04/01 00:52:00;;;;;;;11.30;7.12;;;;;;;6.83;64.24;97548.30;1819832;78;24917;-89
2021/04/01 00:55:05;;;;;;;12.23;7.28;;;;;;;6.75;64.40;97547.89;1798456;78;21159;-89
2021/04/01 00:58:37;;;;;;;15.08;7.08;;;;;;;6.70;64.37;97549.47;1695957;83;21214;-91
2021/04/01 01:02:10;;;;;;;9.58;6.45;;;;;;;6.65;64.30;97541.88;1695148;82;21209;-88
2021/04/01 01:05:44;;;;;;;11.48;6.95;;;;;;;6.60;64.62;97541.75;1694694;82;21144;-86
2021/04/01 01:09:15;;;;;;;14.28;6.58;;;;;;;6.57;64.94;97530.99;1677918;81;21157;-87
2021/04/01 01:12:54;;;;;;;10.10;6.20;;;;;;;6.58;65.38;97523.97;1697377;80;21115;-87
2021/04/01 01:15:54;;;;;;;12.30;6.85;;;;;;;6.63;65.85;97520.62;1696697;84;21282;-90
2021/04/01 01:19:14;;;;;;;9.63;7.08;;;;;;;6.67;65.96;97516.44;1773189;77;21168;-86
2021/04/01 01:22:30;;;;;;;9.60;6.45;;;;;;;6.71;65.79;97516.62;1788945;80;21236;-85
2021/04/01 01:25:52;;;;;;;12.93;7.22;;;;;;;6.78;65.95;97511.88;1770078;79;21237;-86
2021/04/01 01:28:35;;;;;;;12.80;7.25;;;;;;;6.85;66.08;97509.27;1784800;79;21180;-87
2021/04/01 01:31:22;;;;;;;12.47;7.17;;;;;;;6.91;66.21;97505.92;1787997;80;21149;-87
2021/04/01 01:34:47;;;;;;;10.43;6.45;;;;;;;6.95;66.07;97496.93;1708735;80;21137;-87
2021/04/01 01:38:29;;;;;;;11.35;7.10;;;;;;;7.01;66.16;97492.17;1758678;80;21103;-87
2021/04/01 01:41:42;;;;;;;13.48;8.20;;;;;;;6.99;66.08;97491.41;1757816;79;21294;-87
2021/04/01 01:56:01;;;;;;;9.08;6.92;;;;;;;6.73;65.86;97490.32;1824154;76;28204;-87
2021/04/01 01:59:21;;;;;;;12.18;7.70;;;;;;;6.61;65.75;97487.13;1784405;79;21153;-86
2021/04/01 02:06:40;;;;;;;11.30;7.60;;;;;;;6.41;66.34;97488.63;1645177;86;21164;-89
2021/04/01 02:09:34;;;;;;;12.15;7.62;;;;;;;6.30;65.98;97487.56;1596500;81;21378;-87
2021/04/01 02:30:30;;;;;;;10.28;7.20;;;;;;;6.03;66.66;97476.41;1794186;77;23940;-87
2021/04/01 02:33:33;;;;;;;11.05;7.25;;;;;;;5.94;67.18;97477.72;1633327;86;21316;-86
2021/04/01 02:36:51;;;;;;;11.22;6.90;;;;;;;5.91;66.61;97476.13;1629005;87;21341;-87
2021/04/01 02:39:39;;;;;;;9.68;6.72;;;;;;;5.88;66.50;97472.39;1626866;87;21636;-88
2021/04/01 02:46:08;;;;;;;13.78;7.25;;;;;;;5.92;67.29;97469.13;1627464;87;21179;-85
2021/04/01 02:49:49;;;;;;;12.95;6.80;;;;;;;5.93;67.36;97461.19;1607125;83;21162;-90
2021/04/01 02:53:38;;;;;;;;;;;;;;;;;;;;;
2021/04/01 02:57:41;;;;;;;10.60;6.37;;;;;;;6.03;67.32;97469.87;1419699;98;21199;-85
2021/04/01 03:00:40;;;;;;;12.13;6.47;;;;;;;6.12;67.66;97462.81;1524322;91;21247;-89
2021/04/01 03:04:28;;;;;;;9.58;6.75;;;;;;;6.19;67.76;97460.70;1538332;90;21347;-87
2021/04/01 03:10:49;;;;;;;10.70;6.15;;;;;;;6.32;67.99;97455.60;1499581;94;21310;-87
2021/04/01 03:14:28;;;;;;;11.28;6.92;;;;;;;6.36;67.73;97453.16;1378522;99;21473;-86
2021/04/01 03:18:08;;;;;;;11.97;7.05;;;;;;;6.49;67.89;97456.78;1861408;77;23544;-90
2021/04/01 03:21:58;;;;;;;13.62;7.35;;;;;;;6.47;68.07;97456.02;1762620;77;21170;-87
2021/04/01 03:35:58;;;;;;;14.90;6.83;;;;;;;6.18;67.31;97446.75;1657797;87;21345;-88
2021/04/01 03:42:30;;;;;;;12.35;6.75;;;;;;;6.04;67.60;97433.13;1559878;88;21185;-89
2021/04/01 03:46:23;;;;;;;15.70;6.62;;;;;;;5.98;67.42;97444.41;1464341;94;21150;-87
2021/04/01 04:22:13;;;;;;;10.13;6.58;;;;;;;5.57;67.98;97422.20;1544614;90;21204;-90
2021/04/01 04:28:18;;;;;;;10.25;7.05;;;;;;;5.61;68.77;97432.89;1759678;78;21275;-85
2021/04/01 04:34:35;;;;;;;;;;;;;;;;;;;;;
2021/04/01 04:37:54;;;;;;;;;;;;;;;5.86;69.09;97438.06;1557130;91;21197;-87
2021/04/01 04:44:35;;;;;;;;;;;;;;;6.12;68.96;97429.27;1475933;91;21161;-89
2021/04/01 04:51:58;;;;;;;8.80;6.15;;;;;;;6.41;68.67;97434.13;1482109;94;21308;-87
2021/04/01 04:59:25;;;;;;;;;;;;;;;;;;;;;
2021/04/01 05:06:03;;;;;;;13.48;7.03;;;;;;;7.08;67.93;97427.13;1648559;87;21780;-87
2021/04/01 05:09:15;;;;;;;11.88;7.20;;;;;;;7.34;67.39;97427.30;1823566;79;26522;-85
2021/04/01 05:12:14;;;;;;;13.05;7.22;;;;;;;7.37;67.01;97428.43;1709406;83;21287;-87
2021/04/01 05:15:21;;;;;;;21.15;8.30;;;;;;;7.49;66.81;97432.89;1762349;81;21282;-85
2021/04/01 05:18:23;;;;;;;;;;;;;;;;;;;;;
2021/04/01 05:21:16;;;;;;;13.90;8.10;;;;;;;8.10;66.45;97428.62;1721541;83;21315;-86
2021/04/01 05:24:25;;;;;;;12.37;7.28;;;;;;;8.59;66.11;97425.03;1634803;87;21207;-85
2021/04/01 05:28:01;;;;;;;11.40;6.67;;;;;;;9.04;65.27;97430.77;1641277;87;21196;-85
2021/04/01 06:18:35;;;;;;;11.60;6.17;;;;;;;16.60;50.20;97407.05;1627895;86;21169;-91
2021/04/01 06:21:27;;;;;;;12.25;6.37;;;;;;;16.88;48.76;97402.94;1649047;86;21527;-90
2021/04/01 06:27:56;;;;;;;16.50;6.72;;;;;;;17.23;47.96;97403.38;1708151;80;21254;-92
2021/04/01 06:34:43;;;;;;;12.07;5.05;;;;;;;17.63;46.54;97395.72;1664055;86;21272;-93
2021/04/01 06:41:12;;;;;;;12.15;5.78;;;;;;;18.52;44.25;97393.92;1733341;82;21147;-91
2021/04/01 06:44:17;;;;;;;10.35;5.45;;;;;;;19.02;43.04;97391.59;1731448;82;21636;-89
2021/04/01 06:46:51;;;;;;;7.45;5.25;;;;;;;19.32;42.50;97391.86;1675890;84;21174;-88
2021/04/01 06:52:04;;;;;;;11.55;4.92;;;;;;;19.80;41.14;97382.47;1685970;82;21163;-93
2021/04/01 06:54:44;;;;;;;18.30;4.80;;;;;;;20.08;40.08;97386.55;1727956;82;21205;-92
2021/04/01 06:57:36;;;;;;;11.12;4.92;;;;;;;20.34;40.01;97378.16;1707735;82;21169;-89
2021/04/01 07:03:13;;;;;;;7.60;4.58;;;;;;;20.93;38.41;97370.52;1702578;82;21587;-88
2021/04/01 07:05:52;;;;;;;10.23;4.50;;;;;;;20.97;38.34;97367.78;1696059;82;21146;-92
2021/04/01 07:08:36;;;;;;;11.70;5.17;;;;;;;21.03;37.96;97365.70;1737765;81;21185;-93
2021/04/01 07:11:05;;;;;;;14.13;4.85;;;;;;;21.21;37.71;97368.85;1728496;81;21204;-90
2021/04/01 07:13:37;;;;;;;10.15;4.85;;;;;;;21.37;37.30;97363.00;1755109;80;21127;-89
2021/04/01 07:49:17;;;;;;;16.62;6.10;;;;;;;20.32;35.77;97332.52;1786693;79;24599;-90
2021/04/01 07:57:47;;;;;;;;;;;;;;;19.70;35.77;97335.05;1821379;79;24645;-93
2021/04/01 08:03:21;;;;;;;17.85;7.87;;;;;;;18.64;37.98;97328.53;1690396;84;21198;-90
2021/04/01 08:07:22;;;;;;;;;;;;;;;18.67;38.63;97325.53;1859374;77;27785;-92
2021/04/01 08:10:04;;;;;;;19.77;5.15;;;;;;;18.58;38.87;97319.88;1795871;80;20134;-91
2021/04/01 08:12:37;;;;;;;16.48;7.80;;;;;;;18.85;38.62;97323.98;1827662;78;21138;-91
2021/04/01 08:15:41;;;;;;;23.07;8.15;;;;;;;18.49;39.51;97320.88;1819699;78;21816;-90
2021/04/01 08:18:42;;;;;;;17.75;7.87;;;;;;;17.89;40.92;97315.66;1829140;78;21124;-92
2021/04/01 08:22:10;;;;;;;14.35;7.75;;;;;;;17.56;41.89;97313.42;1830775;78;21177;-93
2021/04/01 08:26:07;;;;;;;;;;;;;;;;;;;;;
2021/04/01 08:37:00;;;;;;;18.90;6.37;;;;;;;18.41;42.31;97298.55;1694176;83;21180;-94
2021/04/01 08:39:53;;;;;;;;;;;;;;;18.56;42.00;97292.51;1848430;77;25285;-92
2021/04/01 08:43:33;;;;;;;14.63;6.45;;;;;;;18.22;41.93;97290.36;1818235;79;20224;-93
2021/04/01 08:51:26;;;;;;;13.65;5.60;;;;;;;17.85;42.86;97290.83;1571975;90;21601;-89
2021/04/01 08:55:10;;;;;;;5.08;3.67;;;;;;;17.70;42.89;97292.78;1550478;90;21181;-92
2021/04/01 08:59:31;;;;;;;13.83;4.40;;;;;;;17.71;42.91;97281.64;1528506;91;21219;-93
2021/04/01 09:02:52;;;;;;;10.98;6.95;;;;;;;17.66;43.04;97272.80;1553091;91;21222;-90
2021/04/01 09:13:48;;;;;;;10.20;4.28;;;;;;;17.97;42.71;97258.84;1576354;91;21329;-93
2021/04/01 09:17:14;;;;;;;7.47;4.97;;;;;;;18.09;42.46;97256.70;1567900;89;21183;-90
2021/04/01 09:20:39;;;;;;;11.78;5.65;;;;;;;18.12;41.98;97258.20;1538366;93;21190;-87
2021/04/01 09:23:51;;;;;;;15.75;5.42;;;;;;;18.45;42.07;97255.00;1577997;89;21154;-92
2021/04/01 09:26:52;;;;;;;19.37;5.80;;;;;;;18.48;40.78;97243.15;1618641;89;21200;-91
2021/04/01 09:29:47;;;;;;;15.85;5.28;;;;;;;18.56;40.92;97247.95;1612688;88;22189;-92
2021/04/01 09:32:29;;;;;;;15.55;5.75;;;;;;;18.59;41.64;97241.47;1648302;85;21191;-90
2021/04/01 09:35:41;;;;;;;12.10;5.55;;;;;;;18.68;41.19;97244.44;1641305;85;21835;-91
2021/04/01 09:38:16;;;;;;;13.65;5.60;;;;;;;18.64;40.74;97237.77;1656797;86;21214;-92
2021/04/01 09:41:00;;;;;;;10.98;6.00;;;;;;;18.70;40.04;97241.08;1657051;86;21298;-91
2021/04/01 09:44:27;;;;;;;7.60;4.75;;;;;;;18.75;40.60;97233.89;1657397;86;21302;-92
2021/04/01 09:48:01;;;;;;;7.58;4.87;;;;;;;18.56;40.02;97235.94;1666281;86;21208;-90
2021/04/01 09:54:46;;;;;;;7.78;5.55;;;;;;;18.18;40.64;97225.52;1672625;86;22022;-92
2021/04/01 09:58:15;;;;;;;6.58;4.15;;;;;;;18.23;40.77;97224.52;1677021;83;21210;-91
2021/04/01 10:01:35;;;;;;;10.53;5.85;;;;;;;18.50;40.47;97214.47;1638539;87;21328;-93
2021/04/01 10:08:08;;;;;;;5.35;3.65;;;;;;;18.37;40.07;97205.66;1581471;90;21215;-90
2021/04/01 10:11:24;;;;;;;13.10;5.55;;;;;;;18.50;40.13;97205.13;1577722;91;21198;-91
2021/04/01 10:14:33;;;;;;;10.40;5.35;;;;;;;18.57;40.54;97199.42;1574456;91;21215;-91
2021/04/01 10:17:14;;;;;;;;;;;;;;;18.78;40.34;97186.83;1861853;77;24685;-90
2021/04/01 10:20:02;;;;;;;15.20;6.00;;;;;;;18.88;40.38;97186.13;1831382;78;20220;-92
2021/04/01 10:22:43;;;;;;;10.25;5.25;;;;;;;19.04;40.45;97179.91;1806419;78;21242;-91
2021/04/01 10:25:31;;;;;;;12.68;7.12;;;;;;;19.11;39.69;97177.38;1831706;78;21201;-92
2021/04/01 10:28:22;;;;;;;;;;;;;;;;;;;;;
2021/04/01 10:31:13;;;;;;;11.85;6.00;;;;;;;19.28;38.29;97166.58;1829802;78;21175;-92
2021/04/01 10:42:13;;;;;;;12.80;5.90;;;;;;;19.33;39.40;97165.05;1754492;81;21295;-92
2021/04/01 10:45:45;;;;;;;10.55;6.17;;;;;;;19.44;39.32;97155.77;1792074;80;21322;-91
2021/04/01 10:49:15;;;;;;;10.20;6.60;;;;;;;19.42;38.94;97148.95;1729676;81;21160;-91
2021/04/01 10:52:20;;;;;;;10.45;6.72;;;;;;;19.53;38.31;97140.52;1727092;83;21341;-91
2021/04/01 10:55:12;;;;;;;8.43;5.67;;;;;;;19.82;38.95;97136.24;1758505;81;21169;-91
2021/04/01 10:57:42;;;;;;;9.70;6.30;;;;;;;20.16;38.79;97135.45;1741253;82;21186;-92
2021/04/01 11:00:18;;;;;;;8.60;5.35;;;;;;;20.38;38.38;97133.70;1758440;81;21592;-92
2021/04/01 11:02:58;;;;;;;10.00;5.90;;;;;;;20.37;37.67;97129.39;1743799;82;21147;-92
2021/04/01 11:05:42;;;;;;;7.40;4.72;;;;;;;20.29;37.72;97131.64;1772901;81;21178;-91
2021/04/01 11:08:16;;;;;;;15.03;7.33;;;;;;;20.18;37.56;97136.11;1712087;84;21337;-94
2021/04/01 11:10:53;;;;;;;10.55;6.47;;;;;;;19.96;37.92;97122.11;1773136;81;21142;-90
2021/04/01 11:13:50;;;;;;;9.65;5.20;;;;;;;19.92;37.59;97112.78;1773412;81;21578;-91
2021/04/01 11:16:40;;;;;;;12.30;9.65;;;;;;;20.06;38.06;97115.14;1774024;80;21124;-93
2021/04/01 11:19:53;;;;;;;;;;;;;;;20.08;37.50;97109.11;1827628;77;24943;-94
2021/04/01 11:22:23;;;;;;;11.90;6.10;;;;;;;20.09;36.94;97107.28;1825747;78;20117;-92
2021/04/01 11:24:52;;;;;;;10.08;5.87;;;;;;;20.21;37.97;97103.12;1828392;78;21128;-91
2021/04/01 11:27:22;;;;;;;12.95;6.90;;;;;;;20.37;37.82;97096.75;1799062;78;21135;-93
2021/04/01 11:29:59;;;;;;;8.80;5.53;;;;;;;20.56;37.87;97089.98;1808841;78;21162;-90
2021/04/01 11:32:30;;;;;;;10.50;6.35;;;;;;;20.88;37.27;97093.80;1796021;78;21151;-93
2021/04/01 11:35:03;;;;;;;7.62;4.47;;;;;;;20.99;36.63;97087.93;1790693;79;21537;-93
2021/04/01 11:37:53;;;;;;;8.53;6.75;;;;;;;21.04;36.73;97084.68;1791946;78;21140;-95
2021/04/01 11:40:25;;;;;;;11.10;7.12;;;;;;;20.89;36.47;97078.88;1827851;78;21633;-94
2021/04/01 11:42:59;;;;;;;6.30;4.85;;;;;;;20.70;36.28;97074.91;1798994;78;21166;-92
2021/04/01 11:45:40;;;;;;;14.28;7.15;;;;;;;20.62;36.05;97075.02;1828371;78;21132;-92
2021/04/01 11:48:19;;;;;;;10.40;5.40;;;;;;;20.51;36.63;97069.65;1828265;78;21322;-94
2021/04/01 11:50:54;;;;;;;8.23;5.85;;;;;;;20.50;36.52;97071.19;1828551;78;21285;-90
2021/04/01 11:53:23;;;;;;;9.03;5.85;;;;;;;20.57;36.66;97068.89;1828517;78;21202;-93
2021/04/01 11:55:53;;;;;;;8.10;5.53;;;;;;;20.68;36.96;97060.05;1828503;78;21565;-93
2021/04/01 11:58:22;;;;;;;8.50;4.47;;;;;;;20.75;36.86;97057.81;1828586;78;21282;-90
2021/04/01 12:01:04;;;;;;;7.28;5.65;;;;;;;20.68;36.11;97066.25;1671498;85;21230;-92
2021/04/01 12:03:49;;;;;;;11.78;5.83;;;;;;;20.18;36.83;97051.82;1664938;86;21178;-93
2021/04/01 12:06:31;;;;;;;10.10;6.50;;;;;;;20.00;36.68;97059.72;1664977;86;21178;-91
2021/04/01 12:09:15;;;;;;;12.00;5.58;;;;;;;19.73;37.33;97047.26;1664897;86;21189;-89
2021/04/01 12:12:11;;;;;;;11.83;6.70;;;;;;;19.61;37.55;97044.20;1665531;86;21202;-93
2021/04/01 12:14:44;;;;;;;12.28;6.20;;;;;;;19.63;37.95;97035.48;1664494;86;21186;-92
2021/04/01 12:17:14;;;;;;;8.63;5.78;;;;;;;19.61;38.23;97031.33;1665908;86;21171;-92
2021/04/01 12:20:10;;;;;;;12.03;6.80;;;;;;;19.51;38.56;97038.29;1785507;80;21147;-93
2021/04/01 12:23:16;;;;;;;;;;;;;;;19.37;38.95;97025.70;1829180;77;25256;-93
2021/04/01 12:26:08;;;;;;;9.13;6.83;;;;;;;19.31;39.25;97022.76;1830225;78;20208;-93
2021/04/01 12:29:05;;;;;;;8.85;6.83;;;;;;;19.21;39.44;97026.19;1762550;81;21276;-94
2021/04/01 12:31:57;;;;;;;14.28;7.35;;;;;;;19.21;39.58;97013.34;1742315;81;21584;-93
2021/04/01 12:34:33;;;;;;;;;;;;;;;19.32;39.65;97005.72;1774211;81;21305;-91
2021/04/01 12:37:10;;;;;;;12.10;6.10;;;;;;;19.43;39.25;97004.44;1771401;81;20490;-92
2021/04/01 12:40:39;;;;;;;9.10;6.17;;;;;;;19.39;39.23;96995.14;1771219;81;21120;-92
2021/04/01 12:43:47;;;;;;;11.10;5.83;;;;;;;19.32;39.51;96993.70;1772019;81;21278;-93
2021/04/01 12:46:50;;;;;;;13.55;5.80;;;;;;;19.31;39.35;96989.84;1772135;81;21608;-94
2021/04/01 12:50:02;;;;;;;9.63;6.33;;;;;;;19.37;39.37;96987.80;1752351;81;21120;-92
2021/04/01 12:53:00;;;;;;;11.20;6.40;;;;;;;19.34;39.59;96982.33;1760709;81;21150;-90
2021/04/01 12:56:16;;;;;;;9.05;6.47;;;;;;;19.39;39.54;96983.61;1743084;81;21105;-92
2021/04/01 12:59:46;;;;;;;7.53;6.00;;;;;;;19.43;39.72;96978.23;1762957;81;21133;-90
2021/04/01 13:02:39;;;;;;;12.43;6.15;;;;;;;19.46;39.51;96970.68;1712393;84;21305;-87
2021/04/01 13:05:25;;;;;;;7.00;4.08;;;;;;;19.59;39.48;96970.03;1712116;84;21166;-93
2021/04/01 13:11:09;;;;;;;12.55;5.90;;;;;;;19.66;39.49;96962.94;1711384;84;21134;-93
2021/04/01 13:13:41;;;;;;;10.60;6.45;;;;;;;20.00;38.98;96954.05;1738747;81;21115;-92
2021/04/01 13:16:19;;;;;;;11.83;5.92;;;;;;;20.21;38.84;96954.61;1739714;82;21188;-94
2021/04/01 13:18:48;;;;;;;8.70;5.30;;;;;;;20.39;38.34;96946.66;1740287;82;21305;-92
2021/04/01 13:24:11;;;;;;;;;;;;;;;20.75;38.36;96940.47;1854303;77;24594;-93
2021/04/01 13:26:37;;;;;;;14.40;5.62;;;;;;;20.77;38.10;96941.11;1828046;78;20132;-92
2021/04/01 13:29:08;;;;;;;8.20;5.22;;;;;;;20.82;38.38;96932.50;1828295;78;21252;-92
2021/04/01 13:31:50;;;;;;;6.30;4.70;;;;;;;20.84;37.81;96921.91;1828360;78;21144;-92
2021/04/01 13:34:24;;;;;;;8.53;5.33;;;;;;;20.83;37.66;96922.95;1828601;78;21264;-92
2021/04/01 13:39:46;;;;;;;9.33;4.87;;;;;;;20.93;37.51;96923.95;1821720;78;21153;-85
2021/04/01 13:42:30;;;;;;;10.45;4.62;;;;;;;20.84;37.26;96913.87;1789815;79;21183;-84
2021/04/01 13:45:09;;;;;;;7.92;4.97;;;;;;;20.87;37.39;96909.47;1819643;78;21171;-83
2021/04/01 13:47:29;;;;;;;6.67;4.15;;;;;;;20.98;37.40;96905.43;1815593;77;21594;-85
2021/04/01 13:49:57;;;;;;;9.20;4.10;;;;;;;20.88;36.58;96903.62;1823551;78;21152;-85
2021/04/01 13:52:31;;;;;;;7.05;4.83;;;;;;;20.88;37.09;96899.61;1824178;78;21146;-85
2021/04/01 14:04:30;;;;;;;;;;;;;;;20.74;36.89;96891.97;1836547;77;24543;-85
2021/04/01 14:09:43;;;;;;;14.00;4.95;;;;;;;20.63;36.70;96883.89;1802031;79;21622;-89
2021/04/01 14:12:17;;;;;;;6.62;4.40;;;;;;;20.69;37.04;96882.30;1766280;79;21131;-82
2021/04/01 14:14:45;;;;;;;6.60;5.05;;;;;;;20.71;37.08;96876.25;1782176;80;21566;-84
2021/04/01 14:17:14;;;;;;;8.78;5.03;;;;;;;20.72;37.05;96879.25;1793083;79;21179;-87
2021/04/01 14:19:42;;;;;;;11.03;4.90;;;;;;;20.69;37.06;96875.11;1795491;80;21605;-88
2021/04/01 14:22:11;;;;;;;9.80;5.10;;;;;;;20.69;37.20;96876.45;1790457;78;21660;-83
2021/04/01 14:24:51;;;;;;;11.75;4.80;;;;;;;20.69;37.13;96870.25;1776021;78;21157;-84
2021/04/01 14:29:39;;;;;;;5.80;4.55;;;;;;;20.63;37.29;96864.34;1787026;79;21159;-87
2021/04/01 14:32:08;;;;;;;11.68;4.92;;;;;;;20.67;37.18;96866.92;1782944;79;21179;-85
2021/04/01 14:34:49;;;;;;;;;;;;;;;20.76;37.25;96864.46;1853924;77;24290;-85
2021/04/01 14:37:21;;;;;;;9.40;4.62;;;;;;;20.67;37.13;96865.09;1828251;78;20237;-88
2021/04/01 14:39:52;;;;;;;7.83;4.70;;;;;;;20.67;37.42;96861.08;1816796;78;21329;-88
2021/04/01 14:42:19;;;;;;;7.85;4.78;;;;;;;20.68;37.65;96862.73;1807254;79;21565;-85
2021/04/01 14:44:49;;;;;;;10.20;5.12;;;;;;;20.68;37.53;96859.22;1823735;78;21132;-88
2021/04/01 14:47:19;;;;;;;8.30;5.25;;;;;;;20.60;37.63;96854.33;1821627;79;21144;-84
2021/04/01 14:49:47;;;;;;;9.43;5.90;;;;;;;20.55;37.86;96855.42;1824037;78;21123;-88
2021/04/01 14:52:14;;;;;;;8.80;6.15;;;;;;;20.49;38.00;96856.17;1821492;79;21534;-83
2021/04/01 14:54:43;;;;;;;13.98;6.55;;;;;;;20.41;38.04;96846.94;1821620;79;21140;-90
2021/04/01 14:57:12;;;;;;;10.82;6.35;;;;;;;20.36;38.22;96853.39;1829314;77;21098;-87
2021/04/01 14:59:44;;;;;;;14.43;6.80;;;;;;;20.24;38.30;96849.88;1823273;78;21540;-83
2021/04/01 15:02:17;;;;;;;13.30;7.17;;;;;;;20.11;38.48;96854.59;1806339;79;21101;-88
2021/04/01 15:04:46;;;;;;;9.33;6.83;;;;;;;19.97;38.61;96848.76;1791076;79;21141;-87
2021/04/01 15:07:14;;;;;;;8.40;6.70;;;;;;;19.81;38.89;96849.81;1769657;79;21175;-86
2021/04/01 15:09:49;;;;;;;12.55;7.80;;;;;;;19.71;39.11;96845.27;1806795;78;21111;-85
2021/04/01 15:12:17;;;;;;;10.82;7.08;;;;;;;19.62;39.31;96844.52;1808618;78;21169;-85
2021/04/01 15:14:46;;;;;;;10.48;6.53;;;;;;;19.57;39.47;96850.95;1794793;80;21137;-84
2021/04/01 15:17:15;;;;;;;9.20;6.90;;;;;;;19.42;39.92;96849.62;1820017;78;21101;-83
2021/04/01 15:19:45;;;;;;;11.15;7.30;;;;;;;19.26;40.16;96851.45;1799821;78;21125;-86
2021/04/01 15:22:12;;;;;;;9.40;7.30;;;;;;;19.14;40.52;96848.94;1773210;79;21143;-79
2021/04/01 15:24:41;;;;;;;10.98;6.70;;;;;;;18.98;40.97;96852.08;1770314;80;21141;-80
2021/04/01 15:27:08;;;;;;;14.00;7.30;;;;;;;18.86;41.12;96848.19;1775034;78;21461;-81
2021/04/01 15:29:35;;;;;;;17.55;7.72;;;;;;;18.76;41.42;96848.95;1794293;79;21124;-85
2021/04/01 15:32:11;;;;;;;15.25;7.85;;;;;;;18.67;41.68;96845.03;1805899;78;21819;-81
2021/04/01 15:34:50;;;;;;;12.50;7.03;;;;;;;18.58;41.89;96845.59;1738863;79;21108;-86
2021/04/01 15:37:54;;;;;;;13.13;5.67;;;;;;;18.52;41.98;96849.47;1819904;79;21247;-87
2021/04/01 15:41:09;;;;;;;10.43;6.60;;;;;;;18.45;42.33;96845.87;1719588;82;21575;-88
2021/04/01 15:43:50;;;;;;;11.80;6.87;;;;;;;18.28;42.88;96850.53;1792326;79;21125;-81
2021/04/01 15:46:27;;;;;;;11.78;7.58;;;;;;;18.18;43.23;96852.08;1773757;79;21158;-90
2021/04/01 15:49:17;;;;;;;12.10;7.08;;;;;;;18.06;43.32;96844.48;1775112;80;21173;-91
2021/04/01 15:52:34;;;;;;;15.98;7.08;;;;;;;17.99;43.35;96843.53;1788018;80;21162;-88
2021/04/01 15:55:23;;;;;;;16.02;7.80;;;;;;;17.93;43.60;96841.55;1787065;80;21142;-88
2021/04/01 15:58:32;;;;;;;12.43;6.60;;;;;;;17.89;43.75;96833.56;1750071;82;21130;-83
2021/04/01 16:01:49;;;;;;;11.90;7.12;;;;;;;17.84;43.92;96827.42;1754768;82;21154;-88
2021/04/01 16:04:40;;;;;;;13.85;6.62;;;;;;;17.80;43.88;96826.95;1753181;80;21571;-89
2021/04/01 16:07:13;;;;;;;13.10;7.08;;;;;;;17.78;44.04;96827.63;1772404;80;21219;-89
2021/04/01 16:10:25;;;;;;;9.08;5.67;;;;;;;17.77;44.05;96827.29;1782844;79;21168;-86
2021/04/01 16:13:07;;;;;;;11.28;7.12;;;;;;;17.74;44.13;96823.66;1788731;79;21292;-86
2021/04/01 16:16:02;;;;;;;10.20;7.65;;;;;;;17.70;44.44;96826.34;1787821;80;21162;-86
2021/04/01 16:19:05;;;;;;;12.20;7.05;;;;;;;17.67;44.48;96823.20;1786932;80;21260;-85
2021/04/01 16:22:01;;;;;;;13.62;6.65;;;;;;;17.63;44.57;96816.88;1802962;79;21125;-83
2021/04/01 16:28:04;;;;;;;21.35;7.40;;;;;;;17.55;44.69;96813.44;1781501;79;21566;-84
2021/04/01 16:30:55;;;;;;;14.98;7.37;;;;;;;17.48;44.91;96803.48;1759786;80;21106;-85
2021/04/01 16:33:43;;;;;;;13.60;7.15;;;;;;;17.42;45.08;96810.00;1788815;80;21300;-87
2021/04/01 16:36:59;;;;;;;14.20;7.92;;;;;;;17.36;45.21;96805.34;1778679;80;21169;-82
2021/04/01 16:39:39;;;;;;;16.95;8.08;;;;;;;17.26;45.30;96803.72;1748426;80;21595;-89
2021/04/01 16:42:21;;;;;;;15.85;8.10;;;;;;;17.20;45.43;96805.75;1743692;81;21307;-90
2021/04/01 16:45:47;;;;;;;17.20;7.80;;;;;;;17.13;45.49;96799.46;1718366;81;21160;-88
2021/04/01 16:49:06;;;;;;;14.73;7.37;;;;;;;17.04;45.58;96802.64;1711387;82;21224;-87
2021/04/01 16:53:17;;;;;;;16.75;8.95;;;;;;;16.93;45.65;96795.02;1734935;82;21149;-83
2021/04/01 16:56:35;;;;;;;22.70;9.98;;;;;;;16.79;45.92;96800.02;1695741;82;21134;-88
2021/04/01 16:59:18;;;;;;;25.88;11.90;;;;;;;16.67;46.13;96805.36;1727609;82;21201;-87
2021/04/01 17:02:00;;;;;;;29.60;12.50;;;;;;;16.58;46.40;96798.39;1744942;79;21237;-85
2021/04/01 17:05:14;;;;;;;20.10;9.45;;;;;;;16.49;46.62;96809.05;1603399;88;21392;-90
2021/04/01 17:08:14;;;;;;;18.95;8.83;;;;;;;16.37;46.71;96803.75;1602604;88;21289;-85
2021/04/01 17:11:45;;;;;;;22.62;8.20;;;;;;;16.26;46.98;96809.40;1607982;88;21297;-86
2021/04/01 17:18:42;;;;;;;;;;;;;;;;;;;;;
2021/04/01 17:31:47;;;;;;;;;;;;;;;15.76;48.19;96802.19;1821654;77;26475;-85
2021/04/01 17:38:18;;;;;;;17.48;8.43;;;;;;;15.55;47.99;96805.27;1697416;82;21293;-89
2021/04/01 17:52:11;;;;;;;25.62;11.57;;;;;;;15.26;49.09;96801.21;1861623;76;26471;-87
2021/04/01 18:52:05;;;;;;;26.82;17.40;;;;;;;13.80;52.00;96781.81;1847018;76;27560;-81
2021/04/01 18:58:49;;;;;;;27.70;19.05;;;;;;;13.62;51.90;96776.50;1827917;77;21326;-84
2021/04/01 19:02:10;;;;;;;;;;;;;;;13.54;52.17;96779.06;1792438;79;21259;-82
2021/04/01 19:05:29;;;;;;;35.95;20.77;;;;;;;13.47;52.85;96776.68;1778663;79;20390;-83
2021/04/01 19:08:01;;;;;;;42.65;22.15;;;;;;;13.39;52.38;96778.73;1771416;79;21147;-85
2021/04/01 19:27:04;;;;;;;43.00;22.05;;;;;;;13.15;53.86;96776.13;1866040;76;24636;-83
2021/04/01 19:29:58;;;;;;;35.13;22.45;;;;;;;13.08;53.02;96777.71;1835739;77;22555;-83
2021/04/01 19:36:25;;;;;;;42.67;22.98;;;;;;;13.00;53.27;96768.32;1752125;78;21109;-81
2021/04/01 19:38:55;;;;;;;39.23;22.07;;;;;;;12.95;53.53;96763.47;1819222;78;21279;-87
2021/04/01 19:41:27;;;;;;;38.80;21.68;;;;;;;12.92;53.56;96762.46;1820838;78;21253;-82
2021/04/01 19:43:59;;;;;;;40.45;25.20;;;;;;;12.90;53.66;96762.59;1823750;78;21397;-82
2021/04/01 19:46:36;;;;;;;35.58;21.23;;;;;;;12.87;53.86;96762.05;1815821;78;21237;-80
2021/04/01 19:49:06;;;;;;;33.40;19.73;;;;;;;12.85;54.16;96763.53;1818992;77;21365;-81
2021/04/01 19:51:39;;;;;;;35.23;21.25;;;;;;;12.83;54.12;96760.69;1808501;79;21137;-81
2021/04/01 19:54:06;;;;;;;35.75;20.12;;;;;;;12.80;54.39;96756.03;1786006;78;21243;-83
2021/04/01 19:56:43;;;;;;;29.10;17.70;;;;;;;12.78;54.43;96754.02;1790095;77;21269;-84
2021/04/01 19:59:19;;;;;;;27.65;16.90;;;;;;;12.77;54.44;96747.05;1762712;78;21103;-85
2021/04/01 20:01:51;;;;;;;27.73;16.07;;;;;;;12.75;54.71;96741.57;1783908;78;21238;-84
2021/04/01 20:04:24;;;;;;;28.70;17.15;;;;;;;12.73;54.77;96742.20;1755113;78;21139;-84
2021/04/01 20:06:58;;;;;;;25.55;15.83;;;;;;;12.69;55.00;96736.38;1771922;80;21218;-84
2021/04/01 20:09:25;;;;;;;25.92;16.40;;;;;;;12.68;54.96;96735.20;1779542;78;21076;-81
2021/04/01 20:11:54;;;;;;;32.08;16.15;;;;;;;12.65;55.14;96734.52;1789949;79;21266;-81
2021/04/01 20:14:22;;;;;;;23.95;13.83;;;;;;;12.61;55.24;96733.63;1771908;79;21301;-81
2021/04/01 20:16:52;;;;;;;19.73;13.20;;;;;;;12.59;55.30;96738.22;1786183;79;21204;-85
2021/04/01 20:19:21;;;;;;;19.73;13.98;;;;;;;12.55;55.58;96739.00;1797196;79;21153;-85
2021/04/01 20:21:54;;;;;;;21.93;14.43;;;;;;;12.53;55.57;96739.63;1776476;79;21313;-83
2021/04/01 20:24:21;;;;;;;20.65;13.93;;;;;;;12.50;55.73;96734.14;1786099;79;21163;-85
2021/04/01 20:26:48;;;;;;;22.10;13.83;;;;;;;12.48;55.91;96728.66;1782941;79;21259;-80
2021/04/01 20:29:15;;;;;;;28.55;14.93;;;;;;;12.45;55.94;96729.79;1791667;79;21144;-86
2021/04/01 20:31:46;;;;;;;28.60;15.90;;;;;;;12.44;56.01;96725.95;1775167;79;21280;-81
2021/04/01 20:34:13;;;;;;;26.35;15.05;;;;;;;12.42;56.20;96726.61;1775486;79;21129;-82
2021/04/01 20:36:43;;;;;;;25.15;14.25;;;;;;;12.41;56.09;96719.15;1774163;79;21391;-83
2021/04/01 20:39:10;;;;;;;25.23;15.03;;;;;;;12.39;56.14;96717.13;1770271;79;21139;-80